sensor_id;sensor_type;location;lat;lon;timestamp;P1;durP1;ratioP1;P2;durP2;ratioP2
48667;SDS011;34453;52.198;5.004;2024-01-07T00:01:14;9.82;;;8.90;;
48667;SDS011;34453;52.198;5.004;2024-01-07T00:03:40;10.65;;;9.25;;
48667;SDS011;34453;52.198;5.004;2024-01-07T00:06:07;8.73;;;7.85;;
48667;SDS011;34453;52.198;5.004;2024-01-07T00:08:35;12.70;;;11.50;;
48667;SDS011;34453;52.198;5.004;2024-01-07T00:11:00;9.60;;;8.68;;
48667;SDS011;34453;52.198;5.004;2024-01-07T00:13:26;12.50;;;10.32;;
48667;SDS011;34453;52.198;5.004;2024-01-07T00:15:51;11.85;;;9.15;;
48667;SDS011;34453;52.198;5.004;2024-01-07T00:18:19;20.30;;;15.15;;
48667;SDS011;34453;52.198;5.004;2024-01-07T00:20:44;17.95;;;12.77;;
48667;SDS011;34453;52.198;5.004;2024-01-07T00:23:10;30.65;;;17.05;;
48667;SDS011;34453;52.198;5.004;2024-01-07T00:25:35;26.33;;;16.88;;
48667;SDS011;34453;52.198;5.004;2024-01-07T00:28:01;11.15;;;10.05;;
48667;SDS011;34453;52.198;5.004;2024-01-07T00:30:26;14.43;;;11.07;;
48667;SDS011;34453;52.198;5.004;2024-01-07T00:32:52;13.00;;;9.73;;
48667;SDS011;34453;52.198;5.004;2024-01-07T00:35:18;13.15;;;11.00;;
48667;SDS011;34453;52.198;5.004;2024-01-07T00:37:43;14.43;;;11.63;;
48667;SDS011;34453;52.198;5.004;2024-01-07T00:40:09;10.18;;;9.15;;
48667;SDS011;34453;52.198;5.004;2024-01-07T00:42:35;14.13;;;10.35;;
48667;SDS011;34453;52.198;5.004;2024-01-07T00:45:00;13.48;;;9.68;;
48667;SDS011;34453;52.198;5.004;2024-01-07T00:47:26;11.55;;;9.88;;
48667;SDS011;34453;52.198;5.004;2024-01-07T00:49:51;17.35;;;12.40;;
48667;SDS011;34453;52.198;5.004;2024-01-07T00:52:18;14.75;;;11.70;;
48667;SDS011;34453;52.198;5.004;2024-01-07T00:54:43;13.48;;;11.02;;
48667;SDS011;34453;52.198;5.004;2024-01-07T00:57:10;12.85;;;10.25;;
48667;SDS011;34453;52.198;5.004;2024-01-07T00:59:37;13.40;;;9.82;;
48667;SDS011;34453;52.198;5.004;2024-01-07T01:02:03;14.57;;;10.85;;
48667;SDS011;34453;52.198;5.004;2024-01-07T01:04:28;11.55;;;10.20;;
48667;SDS011;34453;52.198;5.004;2024-01-07T01:06:54;13.30;;;10.23;;
48667;SDS011;34453;52.198;5.004;2024-01-07T01:09:19;13.30;;;10.68;;
48667;SDS011;34453;52.198;5.004;2024-01-07T01:11:45;11.93;;;10.23;;
48667;SDS011;34453;52.198;5.004;2024-01-07T01:14:10;12.43;;;10.45;;
48667;SDS011;34453;52.198;5.004;2024-01-07T01:16:36;14.77;;;11.05;;
48667;SDS011;34453;52.198;5.004;2024-01-07T01:19:01;11.60;;;10.27;;
48667;SDS011;34453;52.198;5.004;2024-01-07T01:21:27;14.57;;;10.25;;
48667;SDS011;34453;52.198;5.004;2024-01-07T01:23:53;11.40;;;9.52;;
48667;SDS011;34453;52.198;5.004;2024-01-07T01:26:19;10.55;;;9.05;;
48667;SDS011;34453;52.198;5.004;2024-01-07T01:28:45;13.77;;;10.40;;
48667;SDS011;34453;52.198;5.004;2024-01-07T01:31:13;12.45;;;9.27;;
48667;SDS011;34453;52.198;5.004;2024-01-07T01:33:39;12.25;;;10.55;;
48667;SDS011;34453;52.198;5.004;2024-01-07T01:36:05;12.60;;;11.30;;
48667;SDS011;34453;52.198;5.004;2024-01-07T01:38:31;11.60;;;9.88;;
48667;SDS011;34453;52.198;5.004;2024-01-07T01:40:57;15.07;;;10.23;;
48667;SDS011;34453;52.198;5.004;2024-01-07T01:43:25;10.68;;;9.27;;
48667;SDS011;34453;52.198;5.004;2024-01-07T01:45:53;13.18;;;9.65;;
48667;SDS011;34453;52.198;5.004;2024-01-07T01:48:19;12.18;;;9.82;;
48667;SDS011;34453;52.198;5.004;2024-01-07T01:50:45;11.77;;;10.25;;
48667;SDS011;34453;52.198;5.004;2024-01-07T01:53:12;13.65;;;10.27;;
48667;SDS011;34453;52.198;5.004;2024-01-07T01:55:38;14.27;;;10.95;;
48667;SDS011;34453;52.198;5.004;2024-01-07T01:58:04;11.35;;;9.23;;
48667;SDS011;34453;52.198;5.004;2024-01-07T02:00:29;13.43;;;10.45;;
48667;SDS011;34453;52.198;5.004;2024-01-07T02:02:55;13.85;;;10.35;;
48667;SDS011;34453;52.198;5.004;2024-01-07T02:05:21;12.52;;;10.48;;
48667;SDS011;34453;52.198;5.004;2024-01-07T02:07:47;14.57;;;11.48;;
48667;SDS011;34453;52.198;5.004;2024-01-07T02:10:13;15.90;;;10.73;;
48667;SDS011;34453;52.198;5.004;2024-01-07T02:12:39;17.38;;;10.85;;
48667;SDS011;34453;52.198;5.004;2024-01-07T02:15:04;15.18;;;10.35;;
48667;SDS011;34453;52.198;5.004;2024-01-07T02:17:30;18.63;;;11.07;;
48667;SDS011;34453;52.198;5.004;2024-01-07T02:19:56;15.32;;;10.90;;
48667;SDS011;34453;52.198;5.004;2024-01-07T02:22:22;16.25;;;11.63;;
48667;SDS011;34453;52.198;5.004;2024-01-07T02:24:47;14.75;;;10.50;;
48667;SDS011;34453;52.198;5.004;2024-01-07T02:27:13;16.15;;;11.48;;
48667;SDS011;34453;52.198;5.004;2024-01-07T02:29:38;14.88;;;11.63;;
48667;SDS011;34453;52.198;5.004;2024-01-07T02:32:04;16.25;;;11.85;;
48667;SDS011;34453;52.198;5.004;2024-01-07T02:34:30;20.42;;;12.95;;
48667;SDS011;34453;52.198;5.004;2024-01-07T02:36:55;18.30;;;13.50;;
48667;SDS011;34453;52.198;5.004;2024-01-07T02:39:21;22.48;;;13.27;;
48667;SDS011;34453;52.198;5.004;2024-01-07T02:41:47;20.60;;;14.38;;
48667;SDS011;34453;52.198;5.004;2024-01-07T02:44:12;22.50;;;14.13;;
48667;SDS011;34453;52.198;5.004;2024-01-07T02:46:38;21.55;;;13.95;;
48667;SDS011;34453;52.198;5.004;2024-01-07T02:49:03;20.48;;;14.07;;
48667;SDS011;34453;52.198;5.004;2024-01-07T02:51:29;22.58;;;13.38;;
48667;SDS011;34453;52.198;5.004;2024-01-07T02:53:54;22.90;;;13.65;;
48667;SDS011;34453;52.198;5.004;2024-01-07T02:56:20;21.35;;;14.05;;
48667;SDS011;34453;52.198;5.004;2024-01-07T02:58:45;19.80;;;14.13;;
48667;SDS011;34453;52.198;5.004;2024-01-07T03:01:11;18.42;;;13.57;;
48667;SDS011;34453;52.198;5.004;2024-01-07T03:03:36;21.30;;;13.23;;
48667;SDS011;34453;52.198;5.004;2024-01-07T03:06:03;18.67;;;13.85;;
48667;SDS011;34453;52.198;5.004;2024-01-07T03:08:29;18.13;;;13.82;;
48667;SDS011;34453;52.198;5.004;2024-01-07T03:10:54;21.35;;;14.65;;
48667;SDS011;34453;52.198;5.004;2024-01-07T03:13:20;21.27;;;14.43;;
48667;SDS011;34453;52.198;5.004;2024-01-07T03:15:45;24.98;;;15.32;;
48667;SDS011;34453;52.198;5.004;2024-01-07T03:18:11;22.02;;;13.65;;
48667;SDS011;34453;52.198;5.004;2024-01-07T03:20:36;18.88;;;13.25;;
48667;SDS011;34453;52.198;5.004;2024-01-07T03:23:02;24.38;;;14.02;;
48667;SDS011;34453;52.198;5.004;2024-01-07T03:25:27;18.52;;;12.93;;
48667;SDS011;34453;52.198;5.004;2024-01-07T03:27:53;22.05;;;13.73;;
48667;SDS011;34453;52.198;5.004;2024-01-07T03:30:18;17.88;;;13.70;;
48667;SDS011;34453;52.198;5.004;2024-01-07T03:32:44;16.90;;;12.25;;
48667;SDS011;34453;52.198;5.004;2024-01-07T03:35:09;22.42;;;14.27;;
48667;SDS011;34453;52.198;5.004;2024-01-07T03:37:35;19.05;;;12.93;;
48667;SDS011;34453;52.198;5.004;2024-01-07T03:40:01;23.02;;;12.85;;
48667;SDS011;34453;52.198;5.004;2024-01-07T03:42:27;18.30;;;12.52;;
48667;SDS011;34453;52.198;5.004;2024-01-07T03:44:53;17.88;;;12.73;;
48667;SDS011;34453;52.198;5.004;2024-01-07T03:47:20;20.65;;;11.80;;
48667;SDS011;34453;52.198;5.004;2024-01-07T03:49:45;15.82;;;11.63;;
48667;SDS011;34453;52.198;5.004;2024-01-07T03:52:10;17.23;;;12.20;;
48667;SDS011;34453;52.198;5.004;2024-01-07T03:54:36;20.65;;;13.18;;
48667;SDS011;34453;52.198;5.004;2024-01-07T03:57:01;17.65;;;11.77;;
48667;SDS011;34453;52.198;5.004;2024-01-07T03:59:27;17.95;;;13.90;;
48667;SDS011;34453;52.198;5.004;2024-01-07T04:01:54;20.10;;;12.73;;
48667;SDS011;34453;52.198;5.004;2024-01-07T04:04:21;16.70;;;12.43;;
48667;SDS011;34453;52.198;5.004;2024-01-07T04:06:46;19.85;;;12.88;;
48667;SDS011;34453;52.198;5.004;2024-01-07T04:09:12;19.33;;;13.32;;
48667;SDS011;34453;52.198;5.004;2024-01-07T04:11:41;23.33;;;13.43;;
48667;SDS011;34453;52.198;5.004;2024-01-07T04:14:07;23.65;;;13.77;;
48667;SDS011;34453;52.198;5.004;2024-01-07T04:16:33;21.45;;;13.35;;
48667;SDS011;34453;52.198;5.004;2024-01-07T04:18:59;21.17;;;13.57;;
48667;SDS011;34453;52.198;5.004;2024-01-07T04:21:25;26.17;;;14.70;;
48667;SDS011;34453;52.198;5.004;2024-01-07T04:23:50;19.35;;;13.27;;
48667;SDS011;34453;52.198;5.004;2024-01-07T04:26:16;20.65;;;13.93;;
48667;SDS011;34453;52.198;5.004;2024-01-07T04:28:41;23.15;;;14.65;;
48667;SDS011;34453;52.198;5.004;2024-01-07T04:31:07;20.27;;;14.38;;
48667;SDS011;34453;52.198;5.004;2024-01-07T04:33:34;22.85;;;14.90;;
48667;SDS011;34453;52.198;5.004;2024-01-07T04:35:59;24.23;;;15.65;;
48667;SDS011;34453;52.198;5.004;2024-01-07T04:38:26;25.15;;;15.70;;
48667;SDS011;34453;52.198;5.004;2024-01-07T04:40:52;19.58;;;13.82;;
48667;SDS011;34453;52.198;5.004;2024-01-07T04:43:18;24.25;;;15.32;;
48667;SDS011;34453;52.198;5.004;2024-01-07T04:45:44;21.80;;;14.27;;
48667;SDS011;34453;52.198;5.004;2024-01-07T04:48:09;22.00;;;15.55;;
48667;SDS011;34453;52.198;5.004;2024-01-07T04:50:35;22.63;;;14.18;;
48667;SDS011;34453;52.198;5.004;2024-01-07T04:53:01;21.67;;;14.93;;
48667;SDS011;34453;52.198;5.004;2024-01-07T04:55:27;23.13;;;14.23;;
48667;SDS011;34453;52.198;5.004;2024-01-07T04:57:54;22.52;;;14.82;;
48667;SDS011;34453;52.198;5.004;2024-01-07T05:00:20;22.90;;;14.13;;
48667;SDS011;34453;52.198;5.004;2024-01-07T05:02:45;23.20;;;13.82;;
48667;SDS011;34453;52.198;5.004;2024-01-07T05:05:11;21.88;;;14.10;;
48667;SDS011;34453;52.198;5.004;2024-01-07T05:07:37;21.33;;;14.27;;
48667;SDS011;34453;52.198;5.004;2024-01-07T05:10:02;18.45;;;13.18;;
48667;SDS011;34453;52.198;5.004;2024-01-07T05:12:28;19.25;;;13.70;;
48667;SDS011;34453;52.198;5.004;2024-01-07T05:14:53;21.63;;;13.70;;
48667;SDS011;34453;52.198;5.004;2024-01-07T05:17:19;24.83;;;13.55;;
48667;SDS011;34453;52.198;5.004;2024-01-07T05:19:45;21.10;;;14.05;;
48667;SDS011;34453;52.198;5.004;2024-01-07T05:22:10;19.23;;;14.05;;
48667;SDS011;34453;52.198;5.004;2024-01-07T05:24:39;21.23;;;14.27;;
48667;SDS011;34453;52.198;5.004;2024-01-07T05:27:04;23.40;;;14.82;;
48667;SDS011;34453;52.198;5.004;2024-01-07T05:29:31;21.80;;;13.80;;
48667;SDS011;34453;52.198;5.004;2024-01-07T05:31:58;21.83;;;14.40;;
48667;SDS011;34453;52.198;5.004;2024-01-07T05:34:25;23.30;;;14.45;;
48667;SDS011;34453;52.198;5.004;2024-01-07T05:36:51;25.50;;;14.90;;
48667;SDS011;34453;52.198;5.004;2024-01-07T05:39:17;24.05;;;13.82;;
48667;SDS011;34453;52.198;5.004;2024-01-07T05:41:42;22.00;;;14.35;;
48667;SDS011;34453;52.198;5.004;2024-01-07T05:44:09;20.77;;;14.20;;
48667;SDS011;34453;52.198;5.004;2024-01-07T05:46:37;22.92;;;15.18;;
48667;SDS011;34453;52.198;5.004;2024-01-07T05:49:04;20.67;;;15.40;;
48667;SDS011;34453;52.198;5.004;2024-01-07T05:51:30;21.20;;;15.25;;
48667;SDS011;34453;52.198;5.004;2024-01-07T05:53:55;20.73;;;14.38;;
48667;SDS011;34453;52.198;5.004;2024-01-07T05:56:21;22.60;;;13.80;;
48667;SDS011;34453;52.198;5.004;2024-01-07T05:58:47;23.88;;;15.95;;
48667;SDS011;34453;52.198;5.004;2024-01-07T06:01:17;22.75;;;14.38;;
48667;SDS011;34453;52.198;5.004;2024-01-07T06:03:44;22.15;;;14.48;;
48667;SDS011;34453;52.198;5.004;2024-01-07T06:06:12;23.70;;;15.98;;
48667;SDS011;34453;52.198;5.004;2024-01-07T06:08:38;16.80;;;12.95;;
48667;SDS011;34453;52.198;5.004;2024-01-07T06:11:03;17.30;;;13.35;;
48667;SDS011;34453;52.198;5.004;2024-01-07T06:13:29;17.50;;;12.75;;
48667;SDS011;34453;52.198;5.004;2024-01-07T06:15:54;18.60;;;12.65;;
48667;SDS011;34453;52.198;5.004;2024-01-07T06:18:20;17.52;;;12.18;;
48667;SDS011;34453;52.198;5.004;2024-01-07T06:20:46;17.73;;;11.80;;
48667;SDS011;34453;52.198;5.004;2024-01-07T06:23:11;17.05;;;11.85;;
48667;SDS011;34453;52.198;5.004;2024-01-07T06:25:37;19.77;;;11.73;;
48667;SDS011;34453;52.198;5.004;2024-01-07T06:28:04;20.30;;;13.45;;
48667;SDS011;34453;52.198;5.004;2024-01-07T06:30:30;17.55;;;13.38;;
48667;SDS011;34453;52.198;5.004;2024-01-07T06:32:55;16.10;;;12.07;;
48667;SDS011;34453;52.198;5.004;2024-01-07T06:35:21;20.35;;;13.77;;
48667;SDS011;34453;52.198;5.004;2024-01-07T06:37:46;19.58;;;12.80;;
48667;SDS011;34453;52.198;5.004;2024-01-07T06:40:12;18.83;;;13.05;;
48667;SDS011;34453;52.198;5.004;2024-01-07T06:42:38;19.95;;;12.95;;
48667;SDS011;34453;52.198;5.004;2024-01-07T06:45:04;15.98;;;11.73;;
48667;SDS011;34453;52.198;5.004;2024-01-07T06:47:30;17.83;;;12.70;;
48667;SDS011;34453;52.198;5.004;2024-01-07T06:49:55;17.13;;;11.50;;
48667;SDS011;34453;52.198;5.004;2024-01-07T06:52:21;19.55;;;12.63;;
48667;SDS011;34453;52.198;5.004;2024-01-07T06:54:46;14.85;;;11.10;;
48667;SDS011;34453;52.198;5.004;2024-01-07T06:57:12;14.63;;;11.68;;
48667;SDS011;34453;52.198;5.004;2024-01-07T06:59:37;15.85;;;11.98;;
48667;SDS011;34453;52.198;5.004;2024-01-07T07:02:03;15.20;;;11.50;;
48667;SDS011;34453;52.198;5.004;2024-01-07T07:04:28;15.02;;;11.45;;
48667;SDS011;34453;52.198;5.004;2024-01-07T07:06:54;16.30;;;10.73;;
48667;SDS011;34453;52.198;5.004;2024-01-07T07:09:19;15.98;;;10.75;;
48667;SDS011;34453;52.198;5.004;2024-01-07T07:11:45;15.82;;;10.85;;
48667;SDS011;34453;52.198;5.004;2024-01-07T07:14:10;17.45;;;11.43;;
48667;SDS011;34453;52.198;5.004;2024-01-07T07:16:36;16.48;;;11.30;;
48667;SDS011;34453;52.198;5.004;2024-01-07T07:19:01;17.90;;;12.02;;
48667;SDS011;34453;52.198;5.004;2024-01-07T07:21:27;16.65;;;11.85;;
48667;SDS011;34453;52.198;5.004;2024-01-07T07:23:53;14.50;;;11.00;;
48667;SDS011;34453;52.198;5.004;2024-01-07T07:26:19;18.45;;;11.40;;
48667;SDS011;34453;52.198;5.004;2024-01-07T07:28:45;20.30;;;10.32;;
48667;SDS011;34453;52.198;5.004;2024-01-07T07:31:11;16.58;;;11.10;;
48667;SDS011;34453;52.198;5.004;2024-01-07T07:33:38;14.15;;;11.13;;
48667;SDS011;34453;52.198;5.004;2024-01-07T07:36:05;15.40;;;10.68;;
48667;SDS011;34453;52.198;5.004;2024-01-07T07:38:30;16.33;;;11.40;;
48667;SDS011;34453;52.198;5.004;2024-01-07T07:40:56;10.20;;;9.05;;
48667;SDS011;34453;52.198;5.004;2024-01-07T07:43:21;11.13;;;9.95;;
48667;SDS011;34453;52.198;5.004;2024-01-07T07:45:47;11.95;;;9.60;;
48667;SDS011;34453;52.198;5.004;2024-01-07T07:48:12;12.20;;;9.18;;
48667;SDS011;34453;52.198;5.004;2024-01-07T07:50:38;11.38;;;9.20;;
48667;SDS011;34453;52.198;5.004;2024-01-07T07:53:05;14.23;;;11.13;;
48667;SDS011;34453;52.198;5.004;2024-01-07T07:55:31;13.90;;;10.75;;
48667;SDS011;34453;52.198;5.004;2024-01-07T07:57:56;11.40;;;10.20;;
48667;SDS011;34453;52.198;5.004;2024-01-07T08:00:23;11.70;;;9.85;;
48667;SDS011;34453;52.198;5.004;2024-01-07T08:02:49;13.55;;;9.32;;
48667;SDS011;34453;52.198;5.004;2024-01-07T08:05:14;13.57;;;11.27;;
48667;SDS011;34453;52.198;5.004;2024-01-07T08:07:40;14.40;;;11.15;;
48667;SDS011;34453;52.198;5.004;2024-01-07T08:10:06;16.00;;;10.02;;
48667;SDS011;34453;52.198;5.004;2024-01-07T08:12:33;11.68;;;10.40;;
48667;SDS011;34453;52.198;5.004;2024-01-07T08:14:59;18.52;;;10.85;;
48667;SDS011;34453;52.198;5.004;2024-01-07T08:17:24;16.45;;;11.52;;
48667;SDS011;34453;52.198;5.004;2024-01-07T08:19:50;13.55;;;11.02;;
48667;SDS011;34453;52.198;5.004;2024-01-07T08:22:15;15.93;;;11.15;;
48667;SDS011;34453;52.198;5.004;2024-01-07T08:24:41;11.85;;;10.10;;
48667;SDS011;34453;52.198;5.004;2024-01-07T08:27:06;17.08;;;11.57;;
48667;SDS011;34453;52.198;5.004;2024-01-07T08:29:32;15.35;;;10.18;;
48667;SDS011;34453;52.198;5.004;2024-01-07T08:31:58;10.57;;;9.43;;
48667;SDS011;34453;52.198;5.004;2024-01-07T08:34:23;12.55;;;8.93;;
48667;SDS011;34453;52.198;5.004;2024-01-07T08:36:49;11.75;;;9.50;;
48667;SDS011;34453;52.198;5.004;2024-01-07T08:39:14;13.40;;;8.52;;
48667;SDS011;34453;52.198;5.004;2024-01-07T08:41:40;13.18;;;8.93;;
48667;SDS011;34453;52.198;5.004;2024-01-07T08:44:06;12.60;;;9.70;;
48667;SDS011;34453;52.198;5.004;2024-01-07T08:46:33;9.55;;;8.63;;
48667;SDS011;34453;52.198;5.004;2024-01-07T08:48:59;9.05;;;8.13;;
48667;SDS011;34453;52.198;5.004;2024-01-07T08:51:25;16.10;;;9.68;;
48667;SDS011;34453;52.198;5.004;2024-01-07T08:53:50;8.57;;;7.60;;
48667;SDS011;34453;52.198;5.004;2024-01-07T08:56:16;10.65;;;7.97;;
48667;SDS011;34453;52.198;5.004;2024-01-07T08:58:41;14.75;;;9.15;;
48667;SDS011;34453;52.198;5.004;2024-01-07T09:01:07;11.45;;;9.60;;
48667;SDS011;34453;52.198;5.004;2024-01-07T09:03:34;16.95;;;9.40;;
48667;SDS011;34453;52.198;5.004;2024-01-07T09:05:59;14.13;;;9.45;;
48667;SDS011;34453;52.198;5.004;2024-01-07T09:08:25;12.77;;;8.32;;
48667;SDS011;34453;52.198;5.004;2024-01-07T09:10:50;11.98;;;8.95;;
48667;SDS011;34453;52.198;5.004;2024-01-07T09:13:16;14.95;;;8.35;;
48667;SDS011;34453;52.198;5.004;2024-01-07T09:15:41;12.73;;;7.72;;
48667;SDS011;34453;52.198;5.004;2024-01-07T09:18:07;7.85;;;7.13;;
48667;SDS011;34453;52.198;5.004;2024-01-07T09:20:32;13.20;;;7.38;;
48667;SDS011;34453;52.198;5.004;2024-01-07T09:22:59;9.48;;;7.20;;
48667;SDS011;34453;52.198;5.004;2024-01-07T09:25:24;10.98;;;7.88;;
48667;SDS011;34453;52.198;5.004;2024-01-07T09:27:51;8.80;;;7.95;;
48667;SDS011;34453;52.198;5.004;2024-01-07T09:30:17;8.45;;;7.10;;
48667;SDS011;34453;52.198;5.004;2024-01-07T09:32:42;8.65;;;6.28;;
48667;SDS011;34453;52.198;5.004;2024-01-07T09:35:08;7.60;;;6.82;;
48667;SDS011;34453;52.198;5.004;2024-01-07T09:37:34;7.75;;;6.38;;
48667;SDS011;34453;52.198;5.004;2024-01-07T09:40:00;7.65;;;6.07;;
48667;SDS011;34453;52.198;5.004;2024-01-07T09:42:26;10.82;;;6.68;;
48667;SDS011;34453;52.198;5.004;2024-01-07T09:44:52;6.72;;;6.10;;
48667;SDS011;34453;52.198;5.004;2024-01-07T09:47:17;8.23;;;6.10;;
48667;SDS011;34453;52.198;5.004;2024-01-07T09:49:43;9.73;;;6.28;;
48667;SDS011;34453;52.198;5.004;2024-01-07T09:52:10;5.93;;;5.43;;
48667;SDS011;34453;52.198;5.004;2024-01-07T09:54:37;5.47;;;5.07;;
48667;SDS011;34453;52.198;5.004;2024-01-07T09:57:03;11.38;;;5.28;;
48667;SDS011;34453;52.198;5.004;2024-01-07T09:59:33;8.95;;;6.63;;
48667;SDS011;34453;52.198;5.004;2024-01-07T10:02:00;8.02;;;5.35;;
48667;SDS011;34453;52.198;5.004;2024-01-07T10:04:26;6.25;;;5.00;;
48667;SDS011;34453;52.198;5.004;2024-01-07T10:06:53;5.63;;;5.13;;
48667;SDS011;34453;52.198;5.004;2024-01-07T10:09:19;6.50;;;4.55;;
48667;SDS011;34453;52.198;5.004;2024-01-07T10:11:47;7.15;;;5.00;;
48667;SDS011;34453;52.198;5.004;2024-01-07T10:14:12;4.75;;;4.07;;
48667;SDS011;34453;52.198;5.004;2024-01-07T10:16:38;5.78;;;4.57;;
48667;SDS011;34453;52.198;5.004;2024-01-07T10:19:04;6.60;;;4.38;;
48667;SDS011;34453;52.198;5.004;2024-01-07T10:21:29;5.15;;;4.20;;
48667;SDS011;34453;52.198;5.004;2024-01-07T10:24:08;4.50;;;4.07;;
48667;SDS011;34453;52.198;5.004;2024-01-07T10:26:35;9.48;;;4.10;;
48667;SDS011;34453;52.198;5.004;2024-01-07T10:29:01;4.22;;;3.85;;
48667;SDS011;34453;52.198;5.004;2024-01-07T10:31:27;4.40;;;4.10;;
48667;SDS011;34453;52.198;5.004;2024-01-07T10:33:52;4.13;;;3.75;;
48667;SDS011;34453;52.198;5.004;2024-01-07T10:36:18;4.43;;;3.97;;
48667;SDS011;34453;52.198;5.004;2024-01-07T10:38:46;4.00;;;3.55;;
48667;SDS011;34453;52.198;5.004;2024-01-07T10:41:13;3.95;;;3.70;;
48667;SDS011;34453;52.198;5.004;2024-01-07T10:43:40;6.57;;;4.13;;
48667;SDS011;34453;52.198;5.004;2024-01-07T10:46:11;4.95;;;3.75;;
48667;SDS011;34453;52.198;5.004;2024-01-07T10:48:38;3.78;;;3.53;;
48667;SDS011;34453;52.198;5.004;2024-01-07T10:51:16;5.05;;;3.63;;
48667;SDS011;34453;52.198;5.004;2024-01-07T10:53:50;4.32;;;3.63;;
48667;SDS011;34453;52.198;5.004;2024-01-07T10:56:24;4.90;;;3.17;;
48667;SDS011;34453;52.198;5.004;2024-01-07T10:58:52;3.45;;;3.13;;
48667;SDS011;34453;52.198;5.004;2024-01-07T11:01:19;10.27;;;4.68;;
48667;SDS011;34453;52.198;5.004;2024-01-07T11:04:04;8.20;;;3.63;;
48667;SDS011;34453;52.198;5.004;2024-01-07T11:09:17;3.58;;;3.38;;
48667;SDS011;34453;52.198;5.004;2024-01-07T11:11:47;3.20;;;2.88;;
48667;SDS011;34453;52.198;5.004;2024-01-07T11:17:05;2.70;;;2.30;;
48667;SDS011;34453;52.198;5.004;2024-01-07T11:19:31;5.03;;;2.80;;
48667;SDS011;34453;52.198;5.004;2024-01-07T11:25:01;2.85;;;2.65;;
48667;SDS011;34453;52.198;5.004;2024-01-07T11:27:30;3.15;;;3.03;;
48667;SDS011;34453;52.198;5.004;2024-01-07T11:30:07;2.92;;;2.65;;
48667;SDS011;34453;52.198;5.004;2024-01-07T11:32:44;3.35;;;3.10;;
48667;SDS011;34453;52.198;5.004;2024-01-07T11:35:12;4.88;;;3.28;;
48667;SDS011;34453;52.198;5.004;2024-01-07T11:37:38;3.88;;;3.47;;
48667;SDS011;34453;52.198;5.004;2024-01-07T11:40:03;4.18;;;3.88;;
48667;SDS011;34453;52.198;5.004;2024-01-07T11:42:31;3.78;;;3.55;;
48667;SDS011;34453;52.198;5.004;2024-01-07T11:44:57;3.92;;;3.63;;
48667;SDS011;34453;52.198;5.004;2024-01-07T11:47:23;5.63;;;4.68;;
48667;SDS011;34453;52.198;5.004;2024-01-07T11:49:49;3.33;;;3.08;;
48667;SDS011;34453;52.198;5.004;2024-01-07T11:52:15;3.25;;;3.05;;
48667;SDS011;34453;52.198;5.004;2024-01-07T11:54:41;2.72;;;2.63;;
48667;SDS011;34453;52.198;5.004;2024-01-07T11:57:07;3.67;;;2.40;;
48667;SDS011;34453;52.198;5.004;2024-01-07T11:59:33;2.55;;;2.35;;
48667;SDS011;34453;52.198;5.004;2024-01-07T12:02:00;2.50;;;2.22;;
48667;SDS011;34453;52.198;5.004;2024-01-07T12:04:26;2.75;;;2.25;;
48667;SDS011;34453;52.198;5.004;2024-01-07T12:06:53;2.72;;;1.83;;
48667;SDS011;34453;52.198;5.004;2024-01-07T12:09:18;2.00;;;1.80;;
48667;SDS011;34453;52.198;5.004;2024-01-07T12:11:44;2.20;;;2.10;;
48667;SDS011;34453;52.198;5.004;2024-01-07T12:14:10;6.75;;;2.10;;
48667;SDS011;34453;52.198;5.004;2024-01-07T12:16:36;1.83;;;1.73;;
48667;SDS011;34453;52.198;5.004;2024-01-07T12:19:03;3.08;;;1.80;;
48667;SDS011;34453;52.198;5.004;2024-01-07T12:21:28;2.55;;;2.00;;
48667;SDS011;34453;52.198;5.004;2024-01-07T12:23:54;2.20;;;2.10;;
48667;SDS011;34453;52.198;5.004;2024-01-07T12:26:25;2.17;;;1.55;;
48667;SDS011;34453;52.198;5.004;2024-01-07T12:28:52;2.05;;;1.95;;
48667;SDS011;34453;52.198;5.004;2024-01-07T12:31:22;5.97;;;2.03;;
48667;SDS011;34453;52.198;5.004;2024-01-07T12:33:48;3.25;;;1.67;;
48667;SDS011;34453;52.198;5.004;2024-01-07T12:36:14;1.70;;;1.50;;
48667;SDS011;34453;52.198;5.004;2024-01-07T12:38:43;1.35;;;1.25;;
48667;SDS011;34453;52.198;5.004;2024-01-07T12:41:08;3.97;;;1.85;;
48667;SDS011;34453;52.198;5.004;2024-01-07T12:43:34;1.48;;;1.40;;
48667;SDS011;34453;52.198;5.004;2024-01-07T12:45:59;3.08;;;1.60;;
48667;SDS011;34453;52.198;5.004;2024-01-07T12:48:30;1.20;;;1.20;;
48667;SDS011;34453;52.198;5.004;2024-01-07T12:50:57;3.40;;;1.73;;
48667;SDS011;34453;52.198;5.004;2024-01-07T12:53:22;1.90;;;1.48;;
48667;SDS011;34453;52.198;5.004;2024-01-07T12:55:48;4.75;;;1.27;;
48667;SDS011;34453;52.198;5.004;2024-01-07T12:58:14;1.30;;;1.30;;
48667;SDS011;34453;52.198;5.004;2024-01-07T13:00:39;1.40;;;1.40;;
48667;SDS011;34453;52.198;5.004;2024-01-07T13:03:06;1.98;;;1.70;;
48667;SDS011;34453;52.198;5.004;2024-01-07T13:05:33;2.75;;;2.38;;
48667;SDS011;34453;52.198;5.004;2024-01-07T13:07:59;1.45;;;1.45;;
48667;SDS011;34453;52.198;5.004;2024-01-07T13:10:25;1.75;;;1.65;;
48667;SDS011;34453;52.198;5.004;2024-01-07T13:12:50;1.80;;;1.20;;
48667;SDS011;34453;52.198;5.004;2024-01-07T13:15:16;1.50;;;1.33;;
48667;SDS011;34453;52.198;5.004;2024-01-07T13:17:42;2.00;;;1.48;;
48667;SDS011;34453;52.198;5.004;2024-01-07T13:20:08;3.63;;;1.40;;
48667;SDS011;34453;52.198;5.004;2024-01-07T13:22:37;1.95;;;1.30;;
48667;SDS011;34453;52.198;5.004;2024-01-07T13:25:04;1.83;;;1.73;;
48667;SDS011;34453;52.198;5.004;2024-01-07T13:27:30;1.88;;;1.38;;
48667;SDS011;34453;52.198;5.004;2024-01-07T13:29:55;1.73;;;1.67;;
48667;SDS011;34453;52.198;5.004;2024-01-07T13:32:21;1.52;;;1.42;;
48667;SDS011;34453;52.198;5.004;2024-01-07T13:34:46;2.55;;;1.55;;
48667;SDS011;34453;52.198;5.004;2024-01-07T13:37:13;1.58;;;1.30;;
48667;SDS011;34453;52.198;5.004;2024-01-07T13:39:38;3.55;;;1.65;;
48667;SDS011;34453;52.198;5.004;2024-01-07T13:42:04;2.08;;;1.90;;
48667;SDS011;34453;52.198;5.004;2024-01-07T13:44:29;1.50;;;1.50;;
48667;SDS011;34453;52.198;5.004;2024-01-07T13:46:55;2.83;;;1.60;;
48667;SDS011;34453;52.198;5.004;2024-01-07T13:49:21;1.70;;;1.70;;
48667;SDS011;34453;52.198;5.004;2024-01-07T13:51:47;1.92;;;1.83;;
48667;SDS011;34453;52.198;5.004;2024-01-07T13:54:12;1.70;;;1.60;;
48667;SDS011;34453;52.198;5.004;2024-01-07T13:56:40;1.33;;;1.30;;
48667;SDS011;34453;52.198;5.004;2024-01-07T13:59:10;4.38;;;2.08;;
48667;SDS011;34453;52.198;5.004;2024-01-07T14:01:36;2.20;;;2.10;;
48667;SDS011;34453;52.198;5.004;2024-01-07T14:04:02;3.45;;;1.58;;
48667;SDS011;34453;52.198;5.004;2024-01-07T14:06:29;4.50;;;1.90;;
48667;SDS011;34453;52.198;5.004;2024-01-07T14:08:54;3.03;;;1.90;;
48667;SDS011;34453;52.198;5.004;2024-01-07T14:11:20;4.05;;;1.75;;
48667;SDS011;34453;52.198;5.004;2024-01-07T14:13:46;1.40;;;1.30;;
48667;SDS011;34453;52.198;5.004;2024-01-07T14:16:12;1.85;;;1.55;;
48667;SDS011;34453;52.198;5.004;2024-01-07T14:18:38;1.30;;;1.30;;
48667;SDS011;34453;52.198;5.004;2024-01-07T14:21:04;2.30;;;1.48;;
48667;SDS011;34453;52.198;5.004;2024-01-07T14:23:30;1.52;;;1.42;;
48667;SDS011;34453;52.198;5.004;2024-01-07T14:25:56;1.90;;;1.65;;
48667;SDS011;34453;52.198;5.004;2024-01-07T14:28:22;1.60;;;1.60;;
48667;SDS011;34453;52.198;5.004;2024-01-07T14:30:48;4.68;;;1.55;;
48667;SDS011;34453;52.198;5.004;2024-01-07T14:33:14;3.40;;;1.35;;
48667;SDS011;34453;52.198;5.004;2024-01-07T14:35:40;3.22;;;1.90;;